createdAt,value
2022-08-03T00:02:18.230Z,80.70
2022-08-03T00:04:45.668Z,80.39
2022-08-03T00:07:12.906Z,82.70
2022-08-03T00:09:40.136Z,83.88
2022-08-03T00:12:09.913Z,86.25
2022-08-03T00:14:37.313Z,84.27
2022-08-03T00:17:04.599Z,81.20
2022-08-03T00:19:31.934Z,80.82
2022-08-03T00:21:59.231Z,81.72
2022-08-03T00:24:26.614Z,80.49
2022-08-03T00:26:53.845Z,82.87
2022-08-03T00:29:21.091Z,83.73
2022-08-03T00:31:52.790Z,83.94
2022-08-03T00:34:36.452Z,84.04
2022-08-03T00:37:14.292Z,86.36
2022-08-03T00:39:45.959Z,83.12
2022-08-03T00:42:13.891Z,81.87
2022-08-03T00:44:44.508Z,85.85
2022-08-03T00:47:12.308Z,85.79
2022-08-03T00:49:41.139Z,86.37
2022-08-03T00:52:09.512Z,86.98
2022-08-03T00:54:40.271Z,88.70
2022-08-03T00:57:07.754Z,88.53
2022-08-03T00:59:35.237Z,88.12
2022-08-03T01:02:02.732Z,88.44
2022-08-03T01:04:30.005Z,88.66
2022-08-03T01:07:20.043Z,91.84
2022-08-03T01:09:47.305Z,92.77
2022-08-03T01:12:22.598Z,93.87
2022-08-03T01:14:58.673Z,91.84
2022-08-03T01:17:31.597Z,93.00
2022-08-03T01:20:11.087Z,93.01
2022-08-03T01:22:44.106Z,92.35
2022-08-03T01:25:14.193Z,94.74
2022-08-03T01:27:53.561Z,94.16
2022-08-03T01:30:21.184Z,95.43
2022-08-03T01:32:59.107Z,93.34
2022-08-03T01:35:38.681Z,93.89
2022-08-03T01:38:13.706Z,94.15
2022-08-03T01:40:45.714Z,94.56
2022-08-03T01:43:15.254Z,94.02
2022-08-03T01:46:03.320Z,93.41
2022-08-03T01:48:31.837Z,92.51
2022-08-03T01:50:59.814Z,92.75
2022-08-03T01:53:27.719Z,92.38
2022-08-03T01:55:55.828Z,90.68
2022-08-03T01:58:25.845Z,92.04
2022-08-03T02:00:53.729Z,91.59
2022-08-03T02:03:21.612Z,91.73
2022-08-03T02:05:57.201Z,92.50
2022-08-03T02:08:34.364Z,91.28
2022-08-03T02:11:02.449Z,95.40
2022-08-03T02:13:30.852Z,95.87
2022-08-03T02:15:58.348Z,95.85
2022-08-03T02:18:26.024Z,91.40
2022-08-03T02:20:53.935Z,91.88
2022-08-03T02:23:21.505Z,93.04
2022-08-03T02:25:52.792Z,92.61
2022-08-03T02:28:21.246Z,91.89
2022-08-03T02:30:53.816Z,92.70
2022-08-03T02:33:30.299Z,91.25
2022-08-03T02:35:58.324Z,89.92
2022-08-03T02:38:28.151Z,90.00
2022-08-03T02:40:57.225Z,90.72
2022-08-03T02:43:25.474Z,89.01
2022-08-03T02:45:53.949Z,88.42
2022-08-03T02:48:23.583Z,87.36
2022-08-03T02:50:57.091Z,90.33
2022-08-03T02:53:24.708Z,92.33
2022-08-03T02:55:55.293Z,92.37
2022-08-03T02:58:24.426Z,91.17
2022-08-03T03:00:55.675Z,91.32
2022-08-03T03:03:23.212Z,91.44
2022-08-03T03:05:57.515Z,89.56
2022-08-03T03:08:28.911Z,89.72
2022-08-03T03:11:00.525Z,92.64
2022-08-03T03:13:28.971Z,92.92
2022-08-03T03:15:57.846Z,93.56
2022-08-03T03:18:28.711Z,92.83
2022-08-03T03:20:56.485Z,92.06
2022-08-03T03:23:25.083Z,90.94
2022-08-03T03:25:53.354Z,90.89
2022-08-03T03:28:20.889Z,91.12
2022-08-03T03:30:52.553Z,93.44
2022-08-03T03:33:21.751Z,91.90
2022-08-03T03:35:49.310Z,91.99
2022-08-03T03:38:16.563Z,92.58
2022-08-03T03:40:45.290Z,93.23
2022-08-03T03:43:13.062Z,94.59
2022-08-03T03:45:43.346Z,94.42
2022-08-03T03:48:11.001Z,93.53
2022-08-03T03:50:41.048Z,93.61
2022-08-03T03:53:12.166Z,92.59
2022-08-03T03:55:59.111Z,94.59
2022-08-03T03:58:27.555Z,95.00
2022-08-03T04:00:57.177Z,94.07
2022-08-03T04:03:24.425Z,93.84
2022-08-03T04:06:09.961Z,94.42
2022-08-03T04:08:55.577Z,95.50
2022-08-03T04:11:30.351Z,94.46
2022-08-03T04:14:06.286Z,96.12
2022-08-03T04:16:41.875Z,99.95
2022-08-03T04:19:14.013Z,100.00
2022-08-03T04:21:44.279Z,99.09
2022-08-03T04:24:13.553Z,96.96
2022-08-03T04:26:41.918Z,96.66
2022-08-03T04:29:11.023Z,94.70
2022-08-03T04:31:39.969Z,97.67
2022-08-03T04:34:07.796Z,98.59
2022-08-03T04:36:38.559Z,100.00
2022-08-03T04:39:10.904Z,92.46
2022-08-03T04:42:04.269Z,96.22
2022-08-03T04:44:32.632Z,94.49
2022-08-03T04:47:00.481Z,85.88
2022-08-03T04:49:29.263Z,85.47
2022-08-03T04:51:56.736Z,83.95
2022-08-03T04:54:24.053Z,85.03
2022-08-03T04:56:51.400Z,82.94
2022-08-03T04:59:21.549Z,86.82
2022-08-03T05:01:48.861Z,80.89
2022-08-03T05:04:16.433Z,82.20
2022-08-03T05:06:47.864Z,82.25
2022-08-03T05:09:16.147Z,80.79
2022-08-03T05:12:06.397Z,81.47
2022-08-03T05:14:37.779Z,84.37
2022-08-03T05:17:08.931Z,85.60
2022-08-03T05:19:36.249Z,86.88
2022-08-03T05:22:03.656Z,85.82
2022-08-03T05:24:32.358Z,84.98
2022-08-03T05:26:59.612Z,86.00
2022-08-03T05:29:26.907Z,82.60
2022-08-03T05:31:54.211Z,82.30
2022-08-03T05:34:21.455Z,83.53
2022-08-03T05:36:48.643Z,84.12
2022-08-03T05:39:16.156Z,85.13
2022-08-03T05:41:43.469Z,83.28
2022-08-03T05:44:10.821Z,82.97
2022-08-03T05:46:38.136Z,83.88
2022-08-03T05:49:05.510Z,83.29
2022-08-03T05:51:32.866Z,81.19
2022-08-03T05:54:00.306Z,81.25
2022-08-03T05:56:27.608Z,82.49
2022-08-03T05:58:54.887Z,81.11
2022-08-03T06:01:22.514Z,79.14
2022-08-03T06:03:50.203Z,79.34
2022-08-03T06:06:17.730Z,79.10
2022-08-03T06:08:45.724Z,77.85
2022-08-03T06:11:13.243Z,77.47
2022-08-03T06:13:41.941Z,76.53
2022-08-03T06:16:12.655Z,75.30
2022-08-03T06:18:40.565Z,73.79
2022-08-03T06:21:14.276Z,74.27
2022-08-03T06:23:54.643Z,72.32
2022-08-03T06:26:27.860Z,64.74
2022-08-03T06:28:55.635Z,58.57
2022-08-03T06:31:32.393Z,55.00
2022-08-03T06:34:32.237Z,50.10
2022-08-03T06:36:48.644Z,46.60
2022-08-03T06:39:15.914Z,45.49
2022-08-03T06:41:44.771Z,44.32
2022-08-03T09:17:03.117Z,28.92
2022-08-03T09:19:31.628Z,28.37
2022-08-03T09:22:09.722Z,29.15
2022-08-03T09:25:14.730Z,30.88
2022-08-03T09:27:44.997Z,29.90
2022-08-03T09:30:33.300Z,28.47
2022-08-03T09:33:04.952Z,26.65
2022-08-03T09:35:53.118Z,27.44
2022-08-03T09:38:27.123Z,27.44
2022-08-03T09:40:59.481Z,26.12
2022-08-03T09:43:28.643Z,28.74
2022-08-03T09:46:05.677Z,26.85
2022-08-03T09:48:36.976Z,26.12
2022-08-03T09:51:12.779Z,28.44
2022-08-03T09:53:59.166Z,29.30
2022-08-03T09:56:39.498Z,28.06
2022-08-03T09:59:07.055Z,29.81
2022-08-03T10:01:35.417Z,28.23
2022-08-03T10:04:05.194Z,32.56
2022-08-03T10:06:33.045Z,30.90
2022-08-03T10:09:10.452Z,33.37
2022-08-03T10:11:41.738Z,33.86
2022-08-03T10:14:19.309Z,31.17
2022-08-03T10:16:47.678Z,31.14
2022-08-03T10:19:19.442Z,30.71
2022-08-03T10:21:49.596Z,33.76
2022-08-03T10:24:17.533Z,32.28
2022-08-03T10:26:49.557Z,34.77
2022-08-03T10:29:21.639Z,32.25
2022-08-03T10:31:54.733Z,31.75
2022-08-03T10:34:26.822Z,33.79
2022-08-03T10:36:57.149Z,36.57
2022-08-03T10:39:27.731Z,33.19
2022-08-03T10:41:57.644Z,33.89
2022-08-03T10:44:26.259Z,34.20
2022-08-03T10:46:54.242Z,35.00
2022-08-03T10:49:33.777Z,33.71
2022-08-03T10:52:12.797Z,32.45
2022-08-03T10:55:00.105Z,34.78
2022-08-03T10:57:48.752Z,33.93
2022-08-03T11:00:19.402Z,33.74
2022-08-03T11:03:06.420Z,34.90
2022-08-03T11:05:37.819Z,33.84
2022-08-03T11:08:21.426Z,34.59
2022-08-03T11:10:52.225Z,34.62
2022-08-03T11:13:20.970Z,35.58
2022-08-03T11:15:49.784Z,36.65
2022-08-03T11:18:17.620Z,34.33
2022-08-03T11:20:49.401Z,33.87
2022-08-03T11:23:17.984Z,34.71
2022-08-03T11:26:03.849Z,35.67
2022-08-03T11:28:33.723Z,32.58
2022-08-03T11:31:47.238Z,33.95
2022-08-03T11:34:12.256Z,33.68
2022-08-03T11:36:58.575Z,35.59
2022-08-03T11:39:42.717Z,36.31
2022-08-03T11:42:24.926Z,36.03
2022-08-03T11:44:53.802Z,36.35
2022-08-03T11:47:24.492Z,36.59
2022-08-03T11:49:59.214Z,34.76
2022-08-03T11:52:28.734Z,33.50
2022-08-03T11:54:57.875Z,37.82
2022-08-03T11:59:01.264Z,38.05
2022-08-03T12:00:20.944Z,32.74
2022-08-03T12:03:22.619Z,37.58
2022-08-03T12:05:53.613Z,35.85
2022-08-03T12:08:34.260Z,37.95
2022-08-03T12:11:08.163Z,41.32
2022-08-03T12:14:44.124Z,40.94
2022-08-03T12:16:32.903Z,36.49
2022-08-03T12:19:04.214Z,38.57
2022-08-03T12:21:45.734Z,35.37
2022-08-03T12:24:29.658Z,36.23
2022-08-03T12:27:04.503Z,38.03
2022-08-03T12:29:33.262Z,39.46
2022-08-03T12:32:00.846Z,34.66
2022-08-03T12:34:47.245Z,36.25
2022-08-03T12:37:23.011Z,34.96
2022-08-03T12:40:02.528Z,37.73
2022-08-03T12:42:39.482Z,37.74
2022-08-03T12:45:32.326Z,37.73
2022-08-03T12:48:18.618Z,40.47
2022-08-03T12:51:15.411Z,38.95
2022-08-03T12:54:05.734Z,36.26
2022-08-03T12:57:35.782Z,39.54
2022-08-03T13:00:28.859Z,37.40
2022-08-03T13:03:39.287Z,37.97
2022-08-03T13:06:34.157Z,37.41
2022-08-03T13:09:09.916Z,36.87
2022-08-03T13:11:55.611Z,35.22
2022-08-03T13:14:28.293Z,39.33
2022-08-03T13:17:54.382Z,36.51
2022-08-03T13:21:12.055Z,36.84
2022-08-03T13:28:03.127Z,36.91
2022-08-03T13:30:52.113Z,40.33
2022-08-03T13:33:23.526Z,38.51
2022-08-03T13:36:05.815Z,36.74
2022-08-03T13:38:38.366Z,36.79
2022-08-03T13:41:11.024Z,38.09
2022-08-03T13:43:44.363Z,37.58
2022-08-03T13:46:19.658Z,37.90
2022-08-03T13:48:55.020Z,37.35
2022-08-03T13:51:31.897Z,38.04
2022-08-03T13:54:19.160Z,36.28
2022-08-03T13:58:05.130Z,40.96
2022-08-03T13:59:47.857Z,36.02
2022-08-03T14:02:36.158Z,43.68
2022-08-03T14:05:18.248Z,39.14
2022-08-03T14:07:52.031Z,37.21
2022-08-03T14:10:24.880Z,36.79
2022-08-03T14:13:06.403Z,37.70
2022-08-03T14:15:37.591Z,36.58
2022-08-03T14:18:27.710Z,37.48
2022-08-03T14:21:05.880Z,37.99
2022-08-03T14:24:14.695Z,40.18
2022-08-03T14:26:50.024Z,35.81
2022-08-03T14:29:56.332Z,39.25
2022-08-03T14:32:55.921Z,37.24
2022-08-03T14:35:29.089Z,36.44
2022-08-03T14:38:13.757Z,36.87
2022-08-03T14:41:20.186Z,36.30
2022-08-03T14:43:38.202Z,37.12
2022-08-03T14:46:07.138Z,37.36
2022-08-03T14:50:24.994Z,35.62
2022-08-03T14:51:33.425Z,36.21
2022-08-03T14:59:55.826Z,34.95
2022-08-03T15:07:04.312Z,36.10
2022-08-03T15:13:06.846Z,35.71
2022-08-03T15:20:00.424Z,36.78
2022-08-03T15:22:34.752Z,37.45
2022-08-03T15:25:04.085Z,35.32
2022-08-03T15:28:04.209Z,36.97
2022-08-03T15:30:41.278Z,37.08
2022-08-03T15:33:27.689Z,37.84
2022-08-03T15:36:10.410Z,37.00
2022-08-03T15:38:43.945Z,36.83
2022-08-03T15:41:19.492Z,37.49
2022-08-03T15:43:53.102Z,39.06
2022-08-03T15:46:29.899Z,37.74
2022-08-03T15:49:05.497Z,36.22
2022-08-03T15:52:05.054Z,36.22
2022-08-03T15:54:39.274Z,36.79
2022-08-03T15:57:13.747Z,35.43
2022-08-03T15:59:44.355Z,35.69
2022-08-03T16:05:07.825Z,36.75
2022-08-03T17:10:27.565Z,40.22
2022-08-03T17:13:00.405Z,40.93
2022-08-03T17:15:38.342Z,40.60
2022-08-03T17:18:21.918Z,43.39
2022-08-03T17:20:50.981Z,41.80
2022-08-03T17:23:34.479Z,41.73
2022-08-03T17:26:08.932Z,40.54
2022-08-03T17:28:50.021Z,40.91
2022-08-03T17:31:31.740Z,41.03
2022-08-03T17:34:01.201Z,40.56
2022-08-03T17:39:30.899Z,41.26
2022-08-03T17:42:05.357Z,41.57
2022-08-03T17:44:53.185Z,42.18
2022-08-03T17:47:23.616Z,42.52
2022-08-03T17:49:57.041Z,40.92
2022-08-03T17:52:48.465Z,43.22
2022-08-03T17:55:56.991Z,42.94
2022-08-03T17:58:11.934Z,44.36
2022-08-03T18:01:02.031Z,44.71
2022-08-03T18:03:58.753Z,43.91
2022-08-03T18:06:30.615Z,45.24
2022-08-03T18:09:04.693Z,47.28
2022-08-03T18:11:35.896Z,47.72
2022-08-03T18:14:16.449Z,48.11
2022-08-03T20:16:35.701Z,59.59
2022-08-03T20:34:58.847Z,58.86
2022-08-03T20:45:06.373Z,60.84
2022-08-03T20:57:12.517Z,57.97
2022-08-03T21:01:17.171Z,58.51
2022-08-03T21:24:30.115Z,57.09
2022-08-03T21:28:27.613Z,58.03
2022-08-03T21:35:14.267Z,58.78
2022-08-03T21:42:25.880Z,58.34
2022-08-03T21:45:18.080Z,59.09
2022-08-03T22:01:36.043Z,59.23
2022-08-03T22:04:42.700Z,58.86
2022-08-03T22:07:29.294Z,59.92
2022-08-03T22:10:05.378Z,59.82
2022-08-03T22:12:51.088Z,60.21
2022-08-03T22:15:55.307Z,61.28
2022-08-03T22:18:50.921Z,61.40
2022-08-03T22:24:33.793Z,63.55
2022-08-03T22:28:06.582Z,63.87
2022-08-03T22:31:36.903Z,63.79
2022-08-03T22:34:04.035Z,63.91
2022-08-03T22:36:55.160Z,64.31
2022-08-03T22:39:44.401Z,63.26
2022-08-03T22:43:11.240Z,62.47
2022-08-03T22:46:09.000Z,64.43
2022-08-03T22:48:42.041Z,64.86
2022-08-03T22:51:23.606Z,67.44
2022-08-03T22:58:31.031Z,68.00
2022-08-03T23:01:19.130Z,68.72
2022-08-03T23:04:20.388Z,65.48
2022-08-03T23:07:03.707Z,66.94
2022-08-03T23:10:00.920Z,65.58
2022-08-03T23:12:47.169Z,67.13
2022-08-03T23:18:36.770Z,65.47
2022-08-03T23:22:29.342Z,64.44
2022-08-03T23:25:13.690Z,65.36
2022-08-03T23:28:41.967Z,64.76
2022-08-03T23:31:52.475Z,65.51
2022-08-03T23:38:04.142Z,64.91
2022-08-03T23:40:53.040Z,65.82
2022-08-03T23:43:45.387Z,68.04
2022-08-03T23:46:26.498Z,66.65
2022-08-03T23:49:59.798Z,66.83
2022-08-03T23:52:45.752Z,65.33
2022-08-03T23:55:38.828Z,67.45
2022-08-03T23:58:59.732Z,64.70
